Nearby METAR Reports


KANE - Minneapls/Blaine, Minnesota, USA
Distance from station: ESE 8mi, 13km
Updated: 03/26/2019 6:56am
Partly cloudy
Partly cloudy
 Wind from calm
Wind: Calm
Temperature: 23°F , -5°C
Dew Point: 18°F , -8°C
Humidity: 80%
Barometer: 30.37 inHg , 1028.4 hPa
Clouds: Partly cloudy
Visibility: 10 miles , 16 km
Cloud details: Partly cloudy 25000 ft
2019/03/26 11:56 KANE 261156Z 00000KT 10SM SCT250 M05/M08 A3037
KMIC - Mnpls/Crystal, Minnesota, USA
Distance from station: S 8mi, 14km
Updated: 03/26/2019 6:53am
Clear
Clear
 Wind from calm
Wind: Calm
Temperature: 21°F , -6°C
Dew Point: 18°F , -8°C
Humidity: 86%
Barometer: 30.37 inHg , 1028.4 hPa
Clouds: Clear
Visibility: 10 miles , 16 km
2019/03/26 11:53 KMIC 261153Z 00000KT 10SM CLR M06/M08 A3037 RMK AO2 SLP295 T10561083 11028 21056 56000
 
KMSP - Minneapolis, Minnesota, USA
Distance from station: SSE 22mi, 35km
Updated: 03/26/2019 6:53am
Few Clouds
Few Clouds
 Wind from SE
Wind: SE 5 mph , 7 km/h
Temperature: 27°F , -3°C
Wind Chill: 21°F , -6°C
Dew Point: 18°F , -8°C
Humidity: 69%
Barometer: 30.38 inHg , 1028.8 hPa
Clouds: Few Clouds
Visibility: 10 miles , 16 km
Cloud details: Few Clouds 25000 ft
2019/03/26 11:53 KMSP 261153Z 13004KT 10SM FEW250 M03/M08 A3038 RMK AO2 SLP298 T10281083 11006 21039 56001
KSTP - St. Paul, Minnesota, USA
Distance from station: SE 23mi, 38km
Updated: 03/26/2019 6:53am
Clear
Clear
 Wind from calm
Wind: Calm
Temperature: 25°F , -4°C
Dew Point: 18°F , -8°C
Humidity: 74%
Barometer: 30.40 inHg , 1029.5 hPa
Clouds: Clear
Visibility: 10 miles , 16 km
2019/03/26 11:53 KSTP 261153Z 00000KT 10SM CLR M04/M08 A3040 RMK AO2 SLP300 T10391083 11011 21044 53000
 
KCFE - Buffalo Muni, Minnesota, USA
Distance from station: W 24mi, 38km
Updated: 03/26/2019 7:15am
Clear
Clear
 
Temperature: 23°F , -5°C
Dew Point: 21°F , -6°C
Humidity: 93%
Barometer: 30.37 inHg , 1028.4 hPa
Clouds: Clear
Visibility: 10 miles , 16 km
2019/03/26 12:15 KCFE 261215Z 10SM CLR M05/M06 A3037 RMK AO2 T10471056
KFCM - Mnpls/Flying Cld, Minnesota, USA
Distance from station: S 25mi, 40km
Updated: 03/26/2019 6:53am
Clear
Clear
 Wind from calm
Wind: Calm
Temperature: 25°F , -4°C
Dew Point: 19°F , -7°C
Humidity: 80%
Barometer: 30.37 inHg , 1028.4 hPa
Clouds: Clear
Visibility: 10 miles , 16 km
2019/03/26 11:53 KFCM 261153Z 00000KT 10SM CLR M04/M07 A3037 RMK AO2 SLP294 T10441072 11011 21044 55000
 
KCBG - Cambridge Muni, Minnesota, USA
Distance from station: N 27mi, 43km
Updated: 03/26/2019 7:15am
Clear
Clear
 Wind from calm
Wind: Calm
Temperature: 18°F , -8°C
Dew Point: 7°F , -14°C
Humidity: 62%
Barometer: 30.37 inHg , 1028.4 hPa
Clouds: Clear
Visibility: 10 miles , 16 km
2019/03/26 12:15 KCBG 261215Z AUTO 00000KT 10SM CLR M08/M14 A3037 RMK AO2
KPNM - Princeton Muni, Minnesota, USA
Distance from station: NNW 27mi, 44km
Updated: 03/26/2019 7:15am
Clear
Clear
 Wind from calm
Wind: Calm
Temperature: 19°F , -7°C
Dew Point: 18°F , -8°C
Humidity: 93%
Barometer: 30.36 inHg , 1028.1 hPa
Clouds: Clear
Visibility: 10 miles , 16 km
2019/03/26 12:15 KPNM 261215Z AUTO 00000KT 10SM CLR M07/M08 A3036 RMK AO2
 
K21D - Lake Elmo, Minnesota, USA
Distance from station: ESE 28mi, 46km
Updated: 03/26/2019 7:15am

 Wind from calm
Wind: Calm
Temperature: 23°F , -5°C
Dew Point: 21°F , -6°C
Humidity: 93%
Barometer: 30.40 inHg , 1029.5 hPa
Visibility: 10 miles , 16 km
2019/03/26 12:15 K21D 261215Z AUTO 00000KT 10SM M05/M06 A3040 RMK AO2
KSGS - South St Paul, Minnesota, USA
Distance from station: SE 28mi, 46km
Updated: 03/26/2019 7:15am
Clear
Clear
 Wind from calm
Wind: Calm
Temperature: 25°F , -4°C
Dew Point: 19°F , -7°C
Humidity: 80%
Barometer: 30.39 inHg , 1029.1 hPa
Clouds: Clear
Visibility: 10 miles , 16 km
2019/03/26 12:15 KSGS 261215Z AUTO 00000KT 10SM CLR M04/M07 A3039 RMK AO2 T10451075
 
KMGG - Maple Lake, Minnesota, USA
Distance from station: W 30mi, 48km
Updated: 03/26/2019 7:16am
Clear
Clear
 Wind from calm
Wind: Calm
Temperature: 21°F , -6°C
Dew Point: 21°F , -6°C
Humidity: 100%
Barometer: 30.37 inHg , 1028.4 hPa
Clouds: Clear
Visibility: 10 miles , 16 km
2019/03/26 12:16 KMGG 261216Z AUTO 00000KT 10SM CLR M06/M06 A3037 RMK AO2 T10561060
KOEO - Osceola, Wisconsin, USA
Distance from station: ENE 34mi, 55km
Updated: 03/26/2019 7:15am
Clear
Clear
 Wind from calm
Wind: Calm
Temperature: 21°F , -6°C
Dew Point: 18°F , -8°C
Humidity: 86%
Barometer: 30.42 inHg , 1030.1 hPa
Clouds: Clear
Visibility: 10 miles , 16 km
2019/03/26 12:15 KOEO 261215Z AUTO 00000KT 10SM CLR M06/M08 A3042 RMK AO2 T10611079
 
KLVN - Mnpls/Airlake, Minnesota, USA
Distance from station: S 39mi, 63km
Updated: 03/26/2019 6:55am
Clear
Clear
 Wind from calm
Wind: Calm
Temperature: 25°F , -4°C
Dew Point: 25°F , -4°C
Humidity: 100%
Barometer: 30.38 inHg , 1028.8 hPa
Clouds: Clear
Visibility: 7 miles , 11 km
2019/03/26 11:55 KLVN 261155Z AUTO 00000KT 7SM CLR M04/M04 A3038 RMK AO2
KRNH - New Richmond Mun, Wisconsin, USA
Distance from station: E 41mi, 66km
Updated: 03/26/2019 7:15am
Clear
Clear
 Wind from calm
Wind: Calm
Temperature: 21°F , -6°C
Dew Point: 19°F , -7°C
Humidity: 93%
Barometer: 30.39 inHg , 1029.1 hPa
Clouds: Clear
Visibility: 10 miles , 16 km
2019/03/26 12:15 KRNH 261215Z AUTO 00000KT 10SM CLR M06/M07 A3039 RMK AO2 T10601073
 
KROS - Rush City, Minnesota, USA
Distance from station: NNE 41mi, 66km
Updated: 03/26/2019 7:15am
Clear
Clear
 Wind from calm
Wind: Calm
Temperature: 19°F , -7°C
Dew Point: 16°F , -9°C
Humidity: 86%
Barometer: 30.38 inHg , 1028.8 hPa
Clouds: Clear
Visibility: 10 miles , 16 km
2019/03/26 12:15 KROS 261215Z AUTO 00000KT 10SM CLR M07/M09 A3038 RMK AO2 T10751086
KSTC - St. Cloud, Minnesota, USA
Distance from station: NW 41mi, 67km
Updated: 03/26/2019 6:53am
Clear
Clear
 Wind from calm
Wind: Calm
Temperature: 19°F , -7°C
Dew Point: 18°F , -8°C
Humidity: 93%
Barometer: 30.35 inHg , 1027.8 hPa
Clouds: Clear
Visibility: 10 miles , 16 km
2019/03/26 11:53 KSTC 261153Z AUTO 00000KT 10SM CLR M07/M08 A3035 RMK AO2 SLP302 I6000 T10671083 11050 21067 58003
 
KGYL - Glencoe, Minnesota, USA
Distance from station: SW 46mi, 74km
Updated: 03/26/2019 7:16am
Mist, Clear
Mist, Clear
 Wind from calm
Wind: Calm
Temperature: 28°F , -2°C
Dew Point: 28°F , -2°C
Humidity: 100%
Barometer: 30.36 inHg , 1028.1 hPa
Summary: Mist
Clouds: Clear
Visibility: 4 miles , 6 km
2019/03/26 12:16 KGYL 261216Z AUTO 00000KT 4SM BR CLR M02/M02 A3036 RMK AO2 T10241023
KJMR - Mora, Minnesota, USA
Distance from station: N 48mi, 78km
Updated: 03/26/2019 7:16am
Clear
Clear
 Wind from calm
Wind: Calm
Temperature: 18°F , -8°C
Dew Point: 14°F , -10°C
Humidity: 86%
Barometer: 30.38 inHg , 1028.8 hPa
Clouds: Clear
Visibility: 10 miles , 16 km
2019/03/26 12:16 KJMR 261216Z AUTO 00000KT 10SM CLR M08/M10 A3038 RMK AO2